PWSweather.com
Personal Weather Stations
Station Observations
KMNGREYC2
Grey Cloud Island, Grey Cloud Island, MN 55071

Grey Cloud IslandGrey Cloud Island, MN 55071

Lat: 44.799333, Lon: -92.987851

Elevation: 700

Station Type: Davis VP2

www.jagielski.com/weather/conditions.htm

High Low Average
Temperature 45.7°F7.6°C 39.0°F3.9°C 42.3°F5.7°C
Dew Point 44.4°F6.9°C 36.3°F2.4°C 40.7°F4.8°C
Winds 9.0 mph 14.5 kmh Calm Calm 2.0 mph S3.2 kmh S
Wind Gusts 21.0 mph33.8 kmh -- 9.0 mph14.5 kmh
Humidity 97% 88% 94%
Pressure 29.98 in1015.2 mb 29.56 in1001.0 mb -
Precipitation 0.00 in0.0 mm - -
Hour Temp Dew Point Humidity Winds Wind Gusts Pressure Precip Precip Rate Daily Precip Total
12:00 AM 45.7°F7.6°C 44.4°F6.9°C 95% 1.0 mph NE1.6 kmh NE 7.0 mph11.3 kmh 29.66 in1004.4 mb 0.07 in1.8 mm 0.00 in0.0 mm 0.07 in1.8 mm
12:15 AM 45.6°F7.6°C 44.3°F6.8°C 95% 3.0 mph NNE4.8 kmh NNE 7.0 mph11.3 kmh 29.65 in1004.1 mb 0.05 in1.3 mm 0.00 in0.0 mm 0.07 in1.8 mm
12:30 AM 45.6°F7.6°C 44.3°F6.8°C 95% 5.0 mph NE8.0 kmh NE 7.0 mph11.3 kmh 29.63 in1003.4 mb 0.07 in1.8 mm 0.08 in2.0 mm 0.09 in2.3 mm
12:45 AM 45.6°F7.6°C 44.3°F6.8°C 95% Calm Calm 7.0 mph11.3 kmh 29.62 in1003.0 mb 0.06 in1.5 mm 0.00 in0.0 mm 0.09 in2.3 mm
01:00 AM 45.6°F7.6°C 44.3°F6.8°C 95% 3.0 mph NNE4.8 kmh NNE 7.0 mph11.3 kmh 29.62 in1003.0 mb 0.07 in1.8 mm 0.01 in0.3 mm 0.10 in2.5 mm
01:15 AM 45.5°F7.5°C 44.4°F6.9°C 96% Calm Calm 9.0 mph14.5 kmh 29.62 in1003.0 mb 0.05 in1.3 mm 0.00 in0.0 mm 0.10 in2.5 mm
01:30 AM 45.5°F7.5°C 44.4°F6.9°C 96% Calm Calm 9.0 mph14.5 kmh 29.62 in1003.0 mb 0.05 in1.3 mm 0.00 in0.0 mm 0.10 in2.5 mm
01:45 AM 45.5°F7.5°C 44.4°F6.9°C 96% 3.0 mph NE4.8 kmh NE 7.0 mph11.3 kmh 29.62 in1003.0 mb 0.02 in0.5 mm 0.00 in0.0 mm 0.10 in2.5 mm
02:00 AM 45.4°F7.4°C 44.3°F6.8°C 96% Calm Calm 9.0 mph14.5 kmh 29.62 in1003.0 mb 0.02 in0.5 mm 0.00 in0.0 mm 0.10 in2.5 mm
02:15 AM 45.4°F7.4°C 44.3°F6.8°C 96% Calm Calm 8.0 mph12.9 kmh 29.60 in1002.4 mb 0.00 in0.0 mm 0.00 in0.0 mm 0.10 in2.5 mm
02:30 AM 45.3°F7.4°C 44.2°F6.8°C 96% Calm Calm 8.0 mph12.9 kmh 29.59 in1002.0 mb 0.00 in0.0 mm 0.00 in0.0 mm 0.10 in2.5 mm
02:45 AM 45.2°F7.3°C 44.1°F6.7°C 96% Calm Calm 9.0 mph14.5 kmh 29.59 in1002.0 mb 0.00 in0.0 mm 0.00 in0.0 mm 0.10 in2.5 mm
03:00 AM 45.0°F7.2°C 43.9°F6.6°C 96% 2.0 mph NE3.2 kmh NE 9.0 mph14.5 kmh 29.60 in1002.4 mb 0.00 in0.0 mm 0.00 in0.0 mm 0.10 in2.5 mm
03:15 AM 44.9°F7.2°C 43.8°F6.6°C 96% 2.0 mph N3.2 kmh N 8.0 mph12.9 kmh 29.60 in1002.4 mb 0.01 in0.3 mm 0.04 in1.0 mm 0.11 in2.8 mm
03:30 AM 44.9°F7.2°C 43.8°F6.6°C 96% Calm Calm 9.0 mph14.5 kmh 29.60 in1002.4 mb 0.03 in0.8 mm 0.08 in2.0 mm 0.13 in3.3 mm
03:45 AM 44.8°F7.1°C 43.7°F6.5°C 96% 3.0 mph N4.8 kmh N 7.0 mph11.3 kmh 29.59 in1002.0 mb 0.03 in0.8 mm 0.00 in0.0 mm 0.13 in3.3 mm
04:00 AM 44.8°F7.1°C 43.7°F6.5°C 96% Calm Calm 7.0 mph11.3 kmh 29.58 in1001.7 mb 0.04 in1.0 mm 0.01 in0.3 mm 0.14 in3.6 mm
04:15 AM 44.7°F7.1°C 43.6°F6.4°C 96% 3.0 mph NE4.8 kmh NE 7.0 mph11.3 kmh 29.59 in1002.0 mb 0.05 in1.3 mm 0.04 in1.0 mm 0.15 in3.8 mm
04:30 AM 44.6°F7.0°C 43.5°F6.4°C 96% Calm Calm 10.0 mph16.1 kmh 29.59 in1002.0 mb 0.05 in1.3 mm 0.00 in0.0 mm 0.15 in3.8 mm
04:45 AM 44.5°F6.9°C 43.4°F6.3°C 96% 1.0 mph E1.6 kmh E 9.0 mph14.5 kmh 29.58 in1001.7 mb 0.02 in0.5 mm 0.00 in0.0 mm 0.15 in3.8 mm
05:00 AM 44.5°F6.9°C 43.4°F6.3°C 96% Calm Calm 10.0 mph16.1 kmh 29.57 in1001.4 mb 0.03 in0.8 mm 0.01 in0.3 mm 0.16 in4.1 mm
05:15 AM 44.4°F6.9°C 43.3°F6.3°C 96% Calm Calm 10.0 mph16.1 kmh 29.58 in1001.7 mb 0.02 in0.5 mm 0.00 in0.0 mm 0.16 in4.1 mm
05:30 AM 44.4°F6.9°C 43.3°F6.3°C 96% 2.0 mph N3.2 kmh N 10.0 mph16.1 kmh 29.58 in1001.7 mb 0.03 in0.8 mm 0.04 in1.0 mm 0.17 in4.3 mm
05:45 AM 44.4°F6.9°C 43.3°F6.3°C 96% Calm Calm 7.0 mph11.3 kmh 29.58 in1001.7 mb 0.02 in0.5 mm 0.00 in0.0 mm 0.17 in4.3 mm
06:00 AM 44.5°F6.9°C 43.4°F6.3°C 96% 1.0 mph N1.6 kmh N 11.0 mph17.7 kmh 29.58 in1001.7 mb 0.03 in0.8 mm 0.01 in0.3 mm 0.18 in4.6 mm
06:15 AM 44.5°F6.9°C 43.7°F6.5°C 97% Calm Calm 11.0 mph17.7 kmh 29.58 in1001.7 mb 0.02 in0.5 mm 0.00 in0.0 mm 0.18 in4.6 mm
06:30 AM 44.6°F7.0°C 43.8°F6.6°C 97% Calm Calm 11.0 mph17.7 kmh 29.57 in1001.4 mb 0.02 in0.5 mm 0.00 in0.0 mm 0.18 in4.6 mm
06:45 AM 44.6°F7.0°C 43.8°F6.6°C 97% 2.0 mph NNW3.2 kmh NNW 9.0 mph14.5 kmh 29.57 in1001.4 mb 0.02 in0.5 mm 0.00 in0.0 mm 0.18 in4.6 mm
07:00 AM 44.6°F7.0°C 43.8°F6.6°C 97% 1.0 mph N1.6 kmh N 9.0 mph14.5 kmh 29.57 in1001.4 mb 0.02 in0.5 mm 0.00 in0.0 mm 0.18 in4.6 mm
07:15 AM 44.7°F7.1°C 43.9°F6.6°C 97% 2.0 mph NNW3.2 kmh NNW 8.0 mph12.9 kmh 29.57 in1001.4 mb 0.02 in0.5 mm 0.00 in0.0 mm 0.18 in4.6 mm
07:30 AM 44.6°F7.0°C 43.8°F6.6°C 97% 1.0 mph N1.6 kmh N 12.0 mph19.3 kmh 29.57 in1001.4 mb 0.02 in0.5 mm 0.00 in0.0 mm 0.18 in4.6 mm
07:45 AM 44.5°F6.9°C 43.4°F6.3°C 96% 3.0 mph NW4.8 kmh NW 7.0 mph11.3 kmh 29.56 in1001.0 mb 0.01 in0.3 mm 0.00 in0.0 mm 0.18 in4.6 mm
08:00 AM 44.6°F7.0°C 43.8°F6.6°C 97% Calm Calm 7.0 mph11.3 kmh 29.57 in1001.4 mb 0.01 in0.3 mm 0.00 in0.0 mm 0.18 in4.6 mm
08:15 AM 44.7°F7.1°C 43.9°F6.6°C 97% 1.0 mph NE1.6 kmh NE 7.0 mph11.3 kmh 29.57 in1001.4 mb 0.01 in0.3 mm 0.00 in0.0 mm 0.18 in4.6 mm
08:30 AM 44.7°F7.1°C 43.9°F6.6°C 97% Calm Calm 7.0 mph11.3 kmh 29.58 in1001.7 mb 0.02 in0.5 mm 0.04 in1.0 mm 0.19 in4.8 mm
08:45 AM 44.6°F7.0°C 43.8°F6.6°C 97% 1.0 mph N1.6 kmh N 6.0 mph9.7 kmh 29.59 in1002.0 mb 0.01 in0.3 mm 0.00 in0.0 mm 0.19 in4.8 mm
09:00 AM 44.4°F6.9°C 43.3°F6.3°C 96% 5.0 mph ENE8.0 kmh ENE 9.0 mph14.5 kmh 29.59 in1002.0 mb 0.01 in0.3 mm 0.00 in0.0 mm 0.19 in4.8 mm
09:15 AM 44.3°F6.8°C 43.2°F6.2°C 96% Calm Calm 7.0 mph11.3 kmh 29.60 in1002.4 mb 0.01 in0.3 mm 0.00 in0.0 mm 0.19 in4.8 mm
09:30 AM 44.3°F6.8°C 43.5°F6.4°C 97% Calm Calm 7.0 mph11.3 kmh 29.60 in1002.4 mb 0.01 in0.3 mm 0.00 in0.0 mm 0.19 in4.8 mm
09:45 AM 44.3°F6.8°C 43.5°F6.4°C 97% 3.0 mph NNE4.8 kmh NNE 8.0 mph12.9 kmh 29.60 in1002.4 mb 0.01 in0.3 mm 0.00 in0.0 mm 0.19 in4.8 mm
10:00 AM 44.3°F6.8°C 43.5°F6.4°C 97% 1.0 mph N1.6 kmh N 8.0 mph12.9 kmh 29.61 in1002.7 mb 0.01 in0.3 mm 0.00 in0.0 mm 0.19 in4.8 mm
10:15 AM 44.2°F6.8°C 43.4°F6.3°C 97% Calm Calm 8.0 mph12.9 kmh 29.61 in1002.7 mb 0.01 in0.3 mm 0.00 in0.0 mm 0.19 in4.8 mm
10:30 AM 44.0°F6.7°C 43.2°F6.2°C 97% Calm Calm 9.0 mph14.5 kmh 29.62 in1003.0 mb 0.01 in0.3 mm 0.00 in0.0 mm 0.19 in4.8 mm
10:45 AM 43.9°F6.6°C 42.8°F6.0°C 96% 2.0 mph N3.2 kmh N 6.0 mph9.7 kmh 29.64 in1003.7 mb 0.01 in0.3 mm 0.00 in0.0 mm 0.19 in4.8 mm
11:00 AM 43.8°F6.6°C 43.0°F6.1°C 97% 2.0 mph N3.2 kmh N 9.0 mph14.5 kmh 29.64 in1003.7 mb 0.01 in0.3 mm 0.00 in0.0 mm 0.19 in4.8 mm
11:15 AM 44.0°F6.7°C 43.2°F6.2°C 97% 8.0 mph NNW12.9 kmh NNW 9.0 mph14.5 kmh 29.64 in1003.7 mb 0.00 in0.0 mm 0.00 in0.0 mm 0.19 in4.8 mm
11:30 AM 44.0°F6.7°C 43.2°F6.2°C 97% 1.0 mph NNE1.6 kmh NNE 11.0 mph17.7 kmh 29.65 in1004.1 mb 0.01 in0.3 mm 0.04 in1.0 mm 0.20 in5.1 mm
11:45 AM 43.7°F6.5°C 42.6°F5.9°C 96% 2.0 mph NNE3.2 kmh NNE 11.0 mph17.7 kmh 29.65 in1004.1 mb 0.01 in0.3 mm 0.00 in0.0 mm 0.20 in5.1 mm
12:00 PM 42.8°F6.0°C 41.7°F5.4°C 96% 3.0 mph NNE4.8 kmh NNE 13.0 mph20.9 kmh 29.65 in1004.1 mb 0.01 in0.3 mm 0.00 in0.0 mm 0.20 in5.1 mm
12:15 PM 42.5°F5.8°C 41.4°F5.2°C 96% 2.0 mph NNE3.2 kmh NNE 9.0 mph14.5 kmh 29.66 in1004.4 mb 0.01 in0.3 mm 0.00 in0.0 mm 0.20 in5.1 mm
12:30 PM 42.0°F5.6°C 40.9°F4.9°C 96% 3.0 mph NE4.8 kmh NE 9.0 mph14.5 kmh 29.67 in1004.7 mb 0.01 in0.3 mm 0.00 in0.0 mm 0.20 in5.1 mm
12:45 PM 41.2°F5.1°C 40.2°F4.6°C 96% 5.0 mph NW8.0 kmh NW 10.0 mph16.1 kmh 29.67 in1004.7 mb 0.01 in0.3 mm 0.00 in0.0 mm 0.20 in5.1 mm
01:00 PM 40.9°F4.9°C 39.9°F4.4°C 96% 2.0 mph NW3.2 kmh NW 12.0 mph19.3 kmh 29.68 in1005.1 mb 0.01 in0.3 mm 0.00 in0.0 mm 0.20 in5.1 mm
01:15 PM 40.4°F4.7°C 39.1°F3.9°C 95% 3.0 mph WNW4.8 kmh WNW 9.0 mph14.5 kmh 29.70 in1005.8 mb 0.01 in0.3 mm 0.00 in0.0 mm 0.20 in5.1 mm
01:30 PM 39.7°F4.3°C 38.4°F3.6°C 95% 3.0 mph NE4.8 kmh NE 11.0 mph17.7 kmh 29.70 in1005.8 mb 0.01 in0.3 mm 0.00 in0.0 mm 0.20 in5.1 mm
01:45 PM 39.5°F4.2°C 38.2°F3.4°C 95% 5.0 mph W8.0 kmh W 11.0 mph17.7 kmh 29.71 in1006.1 mb 0.00 in0.0 mm 0.00 in0.0 mm 0.20 in5.1 mm
02:00 PM 39.7°F4.3°C 38.4°F3.6°C 95% 7.0 mph NE11.3 kmh NE 21.0 mph33.8 kmh 29.71 in1006.1 mb 0.00 in0.0 mm 0.00 in0.0 mm 0.20 in5.1 mm
02:15 PM 40.6°F4.8°C 39.3°F4.1°C 95% 2.0 mph E3.2 kmh E 14.0 mph22.5 kmh 29.72 in1006.4 mb 0.01 in0.3 mm 0.04 in1.0 mm 0.21 in5.3 mm
02:30 PM 40.6°F4.8°C 39.0°F3.9°C 94% 7.0 mph WSW11.3 kmh WSW 19.0 mph30.6 kmh 29.72 in1006.4 mb 0.01 in0.3 mm 0.00 in0.0 mm 0.21 in5.3 mm
02:45 PM 40.8°F4.9°C 38.9°F3.8°C 93% 2.0 mph NW3.2 kmh NW 16.0 mph25.7 kmh 29.73 in1006.8 mb 0.01 in0.3 mm 0.00 in0.0 mm 0.21 in5.3 mm
03:00 PM 41.1°F5.1°C 39.0°F3.9°C 92% 1.0 mph E1.6 kmh E 16.0 mph25.7 kmh 29.73 in1006.8 mb 0.01 in0.3 mm 0.00 in0.0 mm 0.21 in5.3 mm
03:15 PM 41.0°F5.0°C 38.3°F3.5°C 90% 4.0 mph NE6.4 kmh NE 11.0 mph17.7 kmh 29.74 in1007.1 mb 0.01 in0.3 mm 0.00 in0.0 mm 0.21 in5.3 mm
03:30 PM 40.9°F4.9°C 37.9°F3.3°C 89% 6.0 mph N9.7 kmh N 15.0 mph24.1 kmh 29.75 in1007.5 mb 0.01 in0.3 mm 0.00 in0.0 mm 0.21 in5.3 mm
03:45 PM 40.7°F4.8°C 37.7°F3.2°C 89% 6.0 mph NE9.7 kmh NE 14.0 mph22.5 kmh 29.76 in1007.8 mb 0.00 in0.0 mm 0.00 in0.0 mm 0.21 in5.3 mm
04:00 PM 40.4°F4.7°C 37.4°F3.0°C 89% 5.0 mph N8.0 kmh N 14.0 mph22.5 kmh 29.77 in1008.1 mb 0.00 in0.0 mm 0.00 in0.0 mm 0.21 in5.3 mm
04:15 PM 40.1°F4.5°C 37.1°F2.8°C 89% 3.0 mph NW4.8 kmh NW 9.0 mph14.5 kmh 29.78 in1008.5 mb 0.01 in0.3 mm 0.04 in1.0 mm 0.22 in5.6 mm
04:30 PM 39.8°F4.3°C 36.8°F2.7°C 89% 5.0 mph NW8.0 kmh NW 10.0 mph16.1 kmh 29.79 in1008.8 mb 0.01 in0.3 mm 0.00 in0.0 mm 0.22 in5.6 mm
04:45 PM 39.6°F4.2°C 36.6°F2.6°C 89% 5.0 mph NW8.0 kmh NW 9.0 mph14.5 kmh 29.79 in1008.8 mb 0.01 in0.3 mm 0.00 in0.0 mm 0.22 in5.6 mm
05:00 PM 39.5°F4.2°C 36.5°F2.5°C 89% Calm Calm 9.0 mph14.5 kmh 29.80 in1009.1 mb 0.01 in0.3 mm 0.00 in0.0 mm 0.22 in5.6 mm
05:15 PM 39.5°F4.2°C 36.5°F2.5°C 89% 4.0 mph N6.4 kmh N 9.0 mph14.5 kmh 29.81 in1009.5 mb 0.01 in0.3 mm 0.00 in0.0 mm 0.22 in5.6 mm
05:30 PM 39.5°F4.2°C 36.3°F2.4°C 88% 1.0 mph ENE1.6 kmh ENE 12.0 mph19.3 kmh 29.83 in1010.2 mb 0.01 in0.3 mm 0.00 in0.0 mm 0.22 in5.6 mm
05:45 PM 39.5°F4.2°C 36.3°F2.4°C 88% 1.0 mph NNW1.6 kmh NNW 7.0 mph11.3 kmh 29.83 in1010.2 mb 0.00 in0.0 mm 0.00 in0.0 mm 0.22 in5.6 mm
06:00 PM 39.6°F4.2°C 36.9°F2.7°C 90% 1.0 mph NW1.6 kmh NW 11.0 mph17.7 kmh 29.83 in1010.2 mb 0.00 in0.0 mm 0.00 in0.0 mm 0.22 in5.6 mm
06:15 PM 39.4°F4.1°C 36.7°F2.6°C 90% 1.0 mph NE1.6 kmh NE 9.0 mph14.5 kmh 29.84 in1010.5 mb 0.00 in0.0 mm 0.00 in0.0 mm 0.22 in5.6 mm
06:30 PM 39.4°F4.1°C 37.0°F2.8°C 91% 2.0 mph ENE3.2 kmh ENE 9.0 mph14.5 kmh 29.85 in1010.8 mb 0.00 in0.0 mm 0.00 in0.0 mm 0.22 in5.6 mm
06:45 PM 39.3°F4.1°C 36.9°F2.7°C 91% 2.0 mph N3.2 kmh N 6.0 mph9.7 kmh 29.86 in1011.2 mb 0.00 in0.0 mm 0.00 in0.0 mm 0.22 in5.6 mm
07:00 PM 39.1°F3.9°C 36.7°F2.6°C 91% 2.0 mph NE3.2 kmh NE 12.0 mph19.3 kmh 29.87 in1011.5 mb 0.00 in0.0 mm 0.00 in0.0 mm 0.22 in5.6 mm
07:15 PM 39.1°F3.9°C 36.7°F2.6°C 91% Calm Calm 7.0 mph11.3 kmh 29.87 in1011.5 mb 0.00 in0.0 mm 0.00 in0.0 mm 0.22 in5.6 mm
07:30 PM 39.2°F4.0°C 36.8°F2.7°C 91% 9.0 mph NNE14.5 kmh NNE 10.0 mph16.1 kmh 29.88 in1011.9 mb 0.00 in0.0 mm 0.00 in0.0 mm 0.22 in5.6 mm
07:45 PM 39.3°F4.1°C 36.9°F2.7°C 91% 2.0 mph N3.2 kmh N 8.0 mph12.9 kmh 29.88 in1011.9 mb 0.00 in0.0 mm 0.00 in0.0 mm 0.22 in5.6 mm
08:00 PM 39.5°F4.2°C 36.8°F2.7°C 90% 3.0 mph N4.8 kmh N 10.0 mph16.1 kmh 29.89 in1012.2 mb 0.00 in0.0 mm 0.00 in0.0 mm 0.22 in5.6 mm
08:15 PM 39.7°F4.3°C 36.7°F2.6°C 89% 4.0 mph NW6.4 kmh NW 8.0 mph12.9 kmh 29.89 in1012.2 mb 0.00 in0.0 mm 0.00 in0.0 mm 0.22 in5.6 mm
08:30 PM 39.8°F4.3°C 36.8°F2.7°C 89% Calm Calm 8.0 mph12.9 kmh 29.89 in1012.2 mb 0.00 in0.0 mm 0.00 in0.0 mm 0.22 in5.6 mm
08:45 PM 39.8°F4.3°C 36.8°F2.7°C 89% Calm Calm 10.0 mph16.1 kmh 29.91 in1012.9 mb 0.00 in0.0 mm 0.00 in0.0 mm 0.22 in5.6 mm
09:00 PM 39.7°F4.3°C 36.7°F2.6°C 89% 6.0 mph NNW9.7 kmh NNW 10.0 mph16.1 kmh 29.92 in1013.2 mb 0.00 in0.0 mm 0.00 in0.0 mm 0.22 in5.6 mm
09:15 PM 39.6°F4.2°C 37.2°F2.9°C 91% 2.0 mph ENE3.2 kmh ENE 8.0 mph12.9 kmh 29.93 in1013.5 mb 0.00 in0.0 mm 0.00 in0.0 mm 0.22 in5.6 mm
09:30 PM 39.5°F4.2°C 37.1°F2.8°C 91% 2.0 mph N3.2 kmh N 8.0 mph12.9 kmh 29.94 in1013.9 mb 0.00 in0.0 mm 0.00 in0.0 mm 0.22 in5.6 mm
09:45 PM 39.5°F4.2°C 37.4°F3.0°C 92% 1.0 mph N1.6 kmh N 5.0 mph8.0 kmh 29.94 in1013.9 mb 0.00 in0.0 mm 0.00 in0.0 mm 0.22 in5.6 mm
10:00 PM 39.5°F4.2°C 37.7°F3.2°C 93% 1.0 mph NNW1.6 kmh NNW 8.0 mph12.9 kmh 29.95 in1014.2 mb 0.00 in0.0 mm 0.00 in0.0 mm 0.22 in5.6 mm
10:15 PM 39.5°F4.2°C 37.7°F3.2°C 93% Calm Calm 5.0 mph8.0 kmh 29.96 in1014.6 mb 0.01 in0.3 mm 0.04 in1.0 mm 0.23 in5.8 mm
10:30 PM 39.4°F4.1°C 37.6°F3.1°C 93% Calm Calm 6.0 mph9.7 kmh 29.97 in1014.9 mb 0.01 in0.3 mm 0.00 in0.0 mm 0.23 in5.8 mm
10:45 PM 39.5°F4.2°C 37.7°F3.2°C 93% Calm Calm 3.0 mph4.8 kmh 29.97 in1014.9 mb 0.01 in0.3 mm 0.00 in0.0 mm 0.23 in5.8 mm
11:00 PM 39.5°F4.2°C 37.9°F3.3°C 94% Calm Calm 5.0 mph8.0 kmh 29.97 in1014.9 mb 0.01 in0.3 mm 0.00 in0.0 mm 0.23 in5.8 mm
11:15 PM 39.4°F4.1°C 37.8°F3.2°C 94% Calm Calm 1.0 mph1.6 kmh 29.98 in1015.2 mb 0.00 in0.0 mm 0.00 in0.0 mm 0.23 in5.8 mm
11:30 PM 39.3°F4.1°C 37.7°F3.2°C 94% Calm Calm 1.0 mph1.6 kmh 29.98 in1015.2 mb 0.00 in0.0 mm 0.00 in0.0 mm 0.23 in5.8 mm
11:45 PM 39.0°F3.9°C 37.4°F3.0°C 94% Calm Calm -- 29.98 in1015.2 mb 0.00 in0.0 mm 0.00 in0.0 mm 0.23 in5.8 mm